createdAt,value
2019-05-10T05:54:04.212Z,24.21
2019-05-10T05:54:40.658Z,24.27
2019-05-10T05:55:18.161Z,24.36
2019-05-10T05:55:55.162Z,24.42
2019-05-10T05:56:32.391Z,24.53
2019-05-10T05:57:09.230Z,24.56
2019-05-10T05:57:46.181Z,24.34
2019-05-10T05:58:27.239Z,24.07
2019-05-10T05:59:03.304Z,23.85
2019-05-10T05:59:39.466Z,23.60
2019-05-10T06:00:15.829Z,23.44
2019-05-10T06:00:53.081Z,23.28
2019-05-10T06:01:29.896Z,23.14
2019-05-10T06:02:07.427Z,22.97
2019-05-10T06:02:46.768Z,22.84
2019-05-10T06:03:29.233Z,22.70
2019-05-10T06:04:06.375Z,22.57
2019-05-10T06:04:46.147Z,22.50
2019-05-10T06:05:33.542Z,22.51
2019-05-10T06:06:01.261Z,22.50
2019-05-10T06:06:38.267Z,22.44
2019-05-10T06:07:15.336Z,22.41
2019-05-10T06:07:52.598Z,22.40
2019-05-10T06:08:30.614Z,22.38
2019-05-10T06:09:08.944Z,22.40
2019-05-10T06:09:47.265Z,22.38
2019-05-10T06:10:24.281Z,22.38
2019-05-10T06:11:03.868Z,22.36
2019-05-10T06:11:43.305Z,22.36
2019-05-10T06:12:22.450Z,22.42
2019-05-10T06:12:58.602Z,22.44
2019-05-10T06:13:35.661Z,22.39
2019-05-10T06:14:12.845Z,22.33
2019-05-10T06:14:52.207Z,22.33
2019-05-10T06:15:31.577Z,22.35
2019-05-10T06:16:12.765Z,22.33
2019-05-10T06:16:51.077Z,22.33
2019-05-10T06:17:31.771Z,22.24
2019-05-10T06:18:10.196Z,22.24
2019-05-10T06:18:49.031Z,22.23
2019-05-10T06:19:29.392Z,22.16
2019-05-10T06:20:05.869Z,22.07
2019-05-10T06:20:46.741Z,21.83
2019-05-10T06:21:25.230Z,21.83
2019-05-10T06:22:04.391Z,21.73
2019-05-10T06:22:43.979Z,21.73
2019-05-10T06:23:19.334Z,21.73
2019-05-10T06:23:59.446Z,21.72
2019-05-10T06:24:35.276Z,21.69
2019-05-10T06:25:11.664Z,21.60
2019-05-10T06:25:48.572Z,21.49
2019-05-10T06:26:28.779Z,21.52
2019-05-10T06:27:05.100Z,21.52
2019-05-10T06:27:43.219Z,21.51
2019-05-10T06:28:26.888Z,21.54
2019-05-10T06:29:03.828Z,21.65
2019-05-10T06:29:37.615Z,21.65
2019-05-10T06:30:15.945Z,21.79
